createdAt,value
2022-12-23T00:01:28.050Z,5.69
2022-12-23T00:03:58.850Z,5.88
2022-12-23T00:06:27.751Z,5.67
2022-12-23T00:08:58.827Z,5.67
2022-12-23T00:11:29.882Z,5.90
2022-12-23T00:14:21.067Z,5.64
2022-12-23T00:16:51.579Z,5.70
2022-12-23T00:19:20.024Z,5.54
2022-12-23T00:21:49.329Z,5.49
2022-12-23T00:24:17.606Z,5.69
2022-12-23T00:26:47.746Z,5.91
2022-12-23T00:29:18.754Z,5.63
2022-12-23T00:31:47.047Z,6.30
2022-12-23T00:34:15.341Z,5.54
2022-12-23T00:36:43.870Z,5.78
2022-12-23T00:39:30.806Z,6.03
2022-12-23T00:42:17.976Z,6.20
2022-12-23T00:44:46.208Z,5.75
2022-12-23T00:47:36.358Z,5.66
2022-12-23T00:50:03.836Z,5.74
2022-12-23T00:52:32.399Z,5.65
2022-12-23T00:55:00.803Z,5.75
2022-12-23T00:57:30.953Z,6.24
2022-12-23T00:59:59.289Z,5.87
2022-12-23T01:02:45.727Z,5.86
2022-12-23T01:05:37.173Z,5.91
2022-12-23T01:08:07.341Z,6.09
2022-12-23T01:10:35.949Z,5.98
2022-12-23T01:13:06.341Z,6.22
2022-12-23T01:15:34.953Z,5.90
2022-12-23T01:18:03.611Z,5.83
2022-12-23T01:20:31.784Z,5.88
2022-12-23T01:23:00.332Z,5.85
2022-12-23T01:25:28.513Z,5.95
2022-12-23T01:27:57.106Z,5.85
2022-12-23T01:30:26.833Z,6.19
2022-12-23T01:32:55.347Z,5.66
2022-12-23T01:35:23.630Z,5.77
2022-12-23T01:37:52.081Z,5.79
2022-12-23T01:40:20.442Z,5.71
2022-12-23T01:42:47.921Z,5.68
2022-12-23T01:45:21.001Z,6.09
2022-12-23T01:47:54.081Z,6.05
2022-12-23T01:50:25.553Z,5.83
2022-12-23T01:53:04.574Z,5.76
2022-12-23T01:55:39.127Z,5.54
2022-12-23T01:58:11.211Z,5.31
2022-12-23T02:00:57.923Z,5.05
2022-12-23T02:03:46.320Z,5.04
2022-12-23T02:06:36.033Z,5.06
2022-12-23T02:09:18.376Z,4.67
2022-12-23T02:11:59.361Z,4.81
2022-12-23T02:14:57.965Z,4.85
2022-12-23T02:17:29.846Z,4.59
2022-12-23T02:20:17.729Z,4.90
2022-12-23T02:23:02.090Z,4.98
2022-12-23T02:25:49.957Z,4.83
2022-12-23T02:28:33.651Z,4.79
2022-12-23T02:31:10.658Z,4.71
2022-12-23T02:33:48.921Z,4.69
2022-12-23T02:36:30.152Z,4.79
2022-12-23T02:39:01.391Z,4.51
2022-12-23T02:41:34.870Z,4.63
2022-12-23T02:44:07.140Z,4.43
2022-12-23T02:46:39.814Z,4.52
2022-12-23T02:49:11.408Z,4.45
2022-12-23T02:51:45.719Z,4.50
2022-12-23T02:54:26.291Z,4.68
2022-12-23T02:56:55.587Z,4.47
2022-12-23T02:59:26.000Z,4.63
2022-12-23T03:01:56.491Z,4.51
2022-12-23T03:04:24.895Z,4.23
2022-12-23T03:06:55.040Z,4.65
2022-12-23T03:09:26.883Z,4.76
2022-12-23T03:12:03.057Z,4.74
2022-12-23T03:14:55.167Z,5.08
2022-12-23T03:17:40.984Z,5.03
2022-12-23T03:20:15.302Z,4.72
2022-12-23T03:22:51.057Z,4.80
2022-12-23T03:25:21.708Z,4.73
2022-12-23T03:27:54.462Z,4.83
2022-12-23T03:30:24.279Z,4.75
2022-12-23T03:32:56.859Z,4.83
2022-12-23T03:35:31.810Z,4.79
2022-12-23T03:38:02.115Z,4.84
2022-12-23T03:40:35.383Z,4.86
2022-12-23T03:43:06.523Z,4.81
2022-12-23T03:45:39.772Z,5.01
2022-12-23T03:48:15.187Z,4.96
2022-12-23T03:50:44.558Z,4.82
2022-12-23T03:53:16.619Z,4.79
2022-12-23T03:55:48.417Z,5.02
2022-12-23T03:58:25.516Z,5.12
2022-12-23T04:00:59.718Z,5.02
2022-12-23T04:03:32.806Z,4.99
2022-12-23T04:06:03.482Z,4.87
2022-12-23T04:08:34.890Z,4.99
2022-12-23T04:11:03.922Z,4.83
2022-12-23T04:13:33.194Z,4.90
2022-12-23T04:16:02.097Z,4.81
2022-12-23T04:18:32.108Z,5.00
2022-12-23T04:21:00.340Z,4.66
2022-12-23T04:23:29.023Z,4.68
2022-12-23T04:25:57.312Z,4.43
2022-12-23T04:28:25.896Z,4.39
2022-12-23T04:30:54.158Z,4.39
2022-12-23T04:33:22.772Z,4.45
2022-12-23T04:35:52.374Z,4.67
2022-12-23T04:38:20.879Z,4.45
2022-12-23T04:40:49.339Z,4.44
2022-12-23T04:43:17.862Z,4.53
2022-12-23T04:45:46.268Z,4.47
2022-12-23T04:48:14.821Z,4.41
2022-12-23T04:50:43.061Z,4.45
2022-12-23T04:53:12.925Z,4.65
2022-12-23T04:55:41.254Z,4.33
2022-12-23T04:58:10.065Z,4.43
2022-12-23T05:00:40.047Z,4.36
2022-12-23T05:03:08.920Z,4.50
2022-12-23T05:05:37.345Z,4.44
2022-12-23T05:08:07.102Z,4.59
2022-12-23T05:10:36.863Z,4.76
2022-12-23T05:13:05.374Z,4.52
2022-12-23T05:15:34.132Z,4.53
2022-12-23T05:18:02.730Z,4.53
2022-12-23T05:20:31.036Z,4.60
2022-12-23T05:22:59.620Z,4.71
2022-12-23T05:25:28.257Z,4.77
2022-12-23T05:27:58.300Z,5.03
2022-12-23T05:30:26.695Z,4.86
2022-12-23T05:32:55.331Z,4.79
2022-12-23T05:35:23.604Z,4.66
2022-12-23T05:37:52.197Z,4.63
2022-12-23T05:40:23.705Z,4.72
2022-12-23T05:42:54.317Z,4.75
2022-12-23T05:45:24.110Z,5.13
2022-12-23T05:47:52.671Z,4.85
2022-12-23T05:50:20.900Z,4.90
2022-12-23T05:52:49.412Z,4.71
2022-12-23T05:55:18.014Z,4.86
2022-12-23T05:57:46.497Z,4.78
2022-12-23T06:00:17.099Z,4.86
2022-12-23T06:02:53.486Z,5.10
2022-12-23T06:05:22.920Z,4.87
2022-12-23T06:07:51.513Z,4.56
2022-12-23T06:10:21.609Z,4.98
2022-12-23T06:12:50.353Z,4.67
2022-12-23T06:15:19.995Z,4.67
2022-12-23T06:17:50.637Z,4.98
2022-12-23T06:20:20.982Z,4.71
2022-12-23T06:22:49.910Z,4.84
2022-12-23T06:25:18.208Z,4.77
2022-12-23T06:27:46.716Z,4.85
2022-12-23T06:30:15.597Z,5.04
2022-12-23T06:32:44.760Z,5.12
2022-12-23T06:35:14.334Z,5.27
2022-12-23T06:37:42.973Z,5.14
2022-12-23T06:40:12.856Z,5.41
2022-12-23T06:42:41.609Z,5.24
2022-12-23T06:45:11.122Z,5.47
2022-12-23T06:47:39.723Z,5.42
2022-12-23T06:50:09.070Z,5.49
2022-12-23T06:52:39.225Z,5.73
2022-12-23T06:55:08.216Z,5.64
2022-12-23T06:57:36.852Z,5.74
2022-12-23T07:00:05.698Z,5.58
2022-12-23T07:02:34.518Z,5.65
2022-12-23T07:05:03.117Z,5.70
2022-12-23T07:07:33.086Z,5.83
2022-12-23T07:10:02.740Z,6.08
2022-12-23T07:12:31.438Z,5.91
2022-12-23T07:15:00.104Z,5.97
2022-12-23T07:17:29.177Z,6.10
2022-12-23T07:19:57.384Z,5.90
2022-12-23T07:22:26.130Z,6.05
2022-12-23T07:24:54.405Z,5.94
2022-12-23T07:27:24.439Z,6.32
2022-12-23T07:29:52.875Z,5.97
2022-12-23T07:32:21.404Z,6.09
2022-12-23T07:34:49.968Z,6.17
2022-12-23T07:37:18.613Z,6.09
2022-12-23T07:39:47.088Z,5.91
2022-12-23T07:42:43.276Z,6.13
2022-12-23T07:45:06.555Z,6.24
2022-12-23T07:47:35.165Z,6.10
2022-12-23T07:50:03.709Z,6.18
2022-12-23T07:52:32.282Z,6.13
2022-12-23T07:55:00.742Z,6.24
2022-12-23T07:57:29.482Z,6.23
2022-12-23T07:59:58.139Z,6.32
2022-12-23T08:02:28.372Z,6.59
2022-12-23T08:04:57.734Z,6.23
2022-12-23T08:07:26.416Z,6.37
2022-12-23T08:09:55.245Z,6.40
2022-12-23T08:12:23.991Z,6.35
2022-12-23T08:14:52.862Z,6.35
2022-12-23T08:17:22.199Z,6.54
2022-12-23T08:19:52.024Z,6.78
2022-12-23T08:22:20.607Z,6.57
2022-12-23T08:24:48.964Z,6.73
2022-12-23T08:27:17.563Z,6.83
2022-12-23T08:29:45.946Z,7.04
2022-12-23T08:32:14.374Z,7.18
2022-12-23T08:34:42.747Z,7.49
2022-12-23T08:37:12.661Z,7.92
2022-12-23T08:39:41.091Z,8.01
2022-12-23T08:42:10.269Z,8.27
2022-12-23T08:44:38.559Z,8.72
2022-12-23T08:47:07.165Z,8.71
2022-12-23T08:49:36.563Z,8.68
2022-12-23T08:52:05.182Z,8.58
2022-12-23T08:54:35.089Z,8.69
2022-12-23T08:57:03.660Z,8.10
2022-12-23T08:59:31.977Z,7.90
2022-12-23T09:02:02.320Z,7.76
2022-12-23T09:04:30.669Z,7.47
2022-12-23T09:06:59.347Z,7.52
2022-12-23T09:09:27.952Z,7.56
2022-12-23T09:11:57.980Z,7.86
2022-12-23T09:14:26.343Z,7.75
2022-12-23T09:16:54.879Z,7.79
2022-12-23T09:19:23.265Z,7.76
2022-12-23T09:21:51.855Z,7.65
2022-12-23T09:24:20.158Z,7.79
2022-12-23T09:26:48.749Z,7.68
2022-12-23T09:29:18.420Z,7.98
2022-12-23T09:31:47.126Z,7.67
2022-12-23T09:34:15.464Z,7.60
2022-12-23T09:36:44.152Z,7.57
2022-12-23T09:39:12.702Z,7.78
2022-12-23T09:41:56.187Z,8.46
2022-12-23T09:44:41.821Z,8.62
2022-12-23T09:47:13.189Z,8.70
2022-12-23T09:49:47.808Z,8.86
2022-12-23T09:52:21.232Z,9.25
2022-12-23T09:54:52.963Z,9.89
2022-12-23T09:57:24.137Z,10.29
2022-12-23T10:00:02.872Z,10.83
2022-12-23T10:02:44.556Z,11.11
2022-12-23T10:05:22.035Z,11.31
2022-12-23T10:07:53.200Z,11.18
2022-12-23T10:10:29.450Z,11.61
2022-12-23T10:12:59.824Z,11.68
2022-12-23T10:15:31.695Z,12.13
2022-12-23T10:18:04.046Z,12.75
2022-12-23T10:20:39.030Z,12.79
2022-12-23T10:23:12.413Z,12.22
2022-12-23T10:25:44.825Z,11.99
2022-12-23T10:28:13.673Z,11.28
2022-12-23T10:31:23.810Z,11.10
2022-12-23T10:33:38.898Z,10.72
2022-12-23T10:36:11.983Z,10.48
2022-12-23T10:38:49.358Z,10.37
2022-12-23T10:41:27.133Z,10.07
2022-12-23T10:44:05.670Z,9.97
2022-12-23T10:46:40.714Z,9.91
2022-12-23T10:49:16.921Z,9.66
2022-12-23T10:51:47.900Z,9.31
2022-12-23T10:54:19.290Z,9.27
2022-12-23T10:56:47.992Z,9.02
2022-12-23T10:59:17.998Z,9.00
2022-12-23T11:01:48.768Z,9.01
2022-12-23T11:04:19.561Z,8.97
2022-12-23T11:07:10.656Z,9.04
2022-12-23T11:09:42.319Z,8.92
2022-12-23T11:12:12.106Z,8.69
2022-12-23T11:14:42.867Z,8.70
2022-12-23T11:17:23.353Z,8.81
2022-12-23T11:20:09.243Z,9.13
2022-12-23T11:22:38.522Z,8.68
2022-12-23T11:25:28.005Z,9.01
2022-12-23T11:27:58.541Z,8.54
2022-12-23T11:30:28.288Z,8.53
2022-12-23T11:32:58.072Z,8.67
2022-12-23T11:35:29.012Z,8.73
2022-12-23T11:37:57.751Z,8.58
2022-12-23T11:40:28.654Z,8.83
2022-12-23T11:43:02.437Z,9.03
2022-12-23T11:45:32.198Z,8.79
2022-12-23T11:48:01.933Z,9.05
2022-12-23T11:50:34.010Z,9.11
2022-12-23T11:53:06.095Z,8.88
2022-12-23T11:55:34.703Z,8.74
2022-12-23T11:58:03.999Z,9.04
2022-12-23T12:00:38.520Z,9.22
2022-12-23T12:03:08.832Z,9.11
2022-12-23T12:05:40.666Z,9.17
2022-12-23T12:08:11.937Z,9.17
2022-12-23T12:10:41.867Z,9.08
2022-12-23T12:13:23.857Z,9.47
2022-12-23T12:15:59.873Z,9.40
2022-12-23T12:18:30.040Z,9.37
2022-12-23T12:21:01.679Z,9.13
2022-12-23T12:23:38.893Z,9.29
2022-12-23T12:26:10.576Z,8.97
2022-12-23T12:28:40.615Z,8.86
2022-12-23T12:31:17.793Z,9.08
2022-12-23T12:33:50.885Z,9.02
2022-12-23T12:36:26.459Z,8.77
2022-12-23T12:38:56.158Z,8.96
2022-12-23T12:41:29.331Z,8.91
2022-12-23T12:44:03.413Z,9.08
2022-12-23T12:46:36.015Z,9.23
2022-12-23T12:49:12.404Z,9.30
2022-12-23T12:51:45.017Z,9.31
2022-12-23T12:54:19.900Z,9.25
2022-12-23T12:56:51.809Z,9.19
2022-12-23T12:59:22.801Z,9.13
2022-12-23T13:02:03.374Z,9.26
2022-12-23T13:05:08.177Z,9.59
2022-12-23T13:07:45.247Z,9.32
2022-12-23T13:10:17.982Z,9.13
2022-12-23T13:12:57.831Z,9.21
2022-12-23T13:15:31.724Z,9.05
2022-12-23T13:18:14.885Z,9.09
2022-12-23T13:20:49.591Z,9.04
2022-12-23T13:23:45.816Z,8.92
2022-12-23T13:26:16.653Z,8.88
2022-12-23T13:28:52.271Z,8.76
2022-12-23T13:31:29.464Z,9.05
2022-12-23T13:34:02.924Z,8.86
2022-12-23T13:36:42.073Z,8.93
2022-12-23T13:39:24.074Z,9.06
2022-12-23T13:41:52.858Z,9.36
2022-12-23T13:44:22.191Z,8.70
2022-12-23T13:46:58.630Z,8.75
2022-12-23T13:49:34.431Z,8.76
2022-12-23T13:52:08.417Z,8.91
2022-12-23T13:54:46.763Z,8.94
2022-12-23T13:57:25.327Z,8.92
2022-12-23T14:00:06.074Z,8.76
2022-12-23T14:03:01.026Z,8.82
2022-12-23T14:05:45.534Z,8.62
2022-12-23T14:08:28.439Z,8.65
2022-12-23T14:11:00.359Z,8.56
2022-12-23T14:13:29.929Z,9.06
2022-12-23T14:16:27.053Z,8.72
2022-12-23T14:19:24.011Z,8.55
2022-12-23T14:22:05.251Z,8.41
2022-12-23T14:25:15.379Z,8.58
2022-12-23T14:27:54.070Z,8.14
2022-12-23T14:30:26.202Z,8.15
2022-12-23T14:32:59.973Z,8.09
2022-12-23T14:35:52.839Z,8.23
2022-12-23T14:38:30.882Z,8.50
2022-12-23T14:41:40.652Z,8.48
2022-12-23T14:44:21.285Z,8.35
2022-12-23T14:46:59.098Z,8.17
2022-12-23T14:49:43.130Z,8.29
2022-12-23T14:52:54.186Z,8.33
2022-12-23T14:55:49.329Z,8.38
2022-12-23T14:58:54.897Z,8.23
2022-12-23T15:01:30.614Z,7.99
2022-12-23T15:04:01.818Z,7.85
2022-12-23T15:06:34.947Z,8.02
2022-12-23T15:09:11.010Z,7.74
2022-12-23T15:11:41.808Z,7.92
2022-12-23T15:14:18.577Z,7.81
2022-12-23T15:16:47.573Z,7.31
2022-12-23T15:19:26.272Z,7.76
2022-12-23T15:22:22.132Z,7.71
2022-12-23T15:25:01.740Z,7.33
2022-12-23T15:27:35.932Z,7.20
2022-12-23T15:30:07.542Z,7.59
2022-12-23T15:32:37.356Z,7.45
2022-12-23T15:35:22.390Z,7.65
2022-12-23T15:37:52.615Z,7.53
2022-12-23T15:40:27.108Z,7.82
2022-12-23T15:42:58.958Z,7.56
2022-12-23T15:45:37.447Z,7.89
2022-12-23T15:48:08.608Z,7.65
2022-12-23T15:50:42.089Z,7.66
2022-12-23T15:53:17.726Z,7.76
2022-12-23T15:55:46.943Z,7.50
2022-12-23T15:58:23.573Z,7.65
2022-12-23T16:00:55.895Z,7.67
2022-12-23T16:03:35.227Z,7.57
2022-12-23T16:06:12.635Z,7.66
2022-12-23T16:08:41.927Z,7.22
2022-12-23T16:11:15.763Z,7.56
2022-12-23T16:13:58.868Z,7.77
2022-12-23T16:16:40.059Z,7.83
2022-12-23T16:19:42.892Z,8.03
2022-12-23T16:22:36.861Z,8.09
2022-12-23T16:25:12.034Z,7.87
2022-12-23T16:27:42.464Z,7.64
2022-12-23T16:30:20.153Z,7.87
2022-12-23T16:32:53.277Z,7.86
2022-12-23T16:35:32.821Z,7.97
2022-12-23T16:38:11.890Z,7.94
2022-12-23T16:40:43.345Z,7.58
2022-12-23T16:43:11.775Z,7.31
2022-12-23T16:45:48.101Z,7.90
2022-12-23T16:48:26.948Z,7.68
2022-12-23T16:50:59.403Z,7.34
2022-12-23T16:53:28.913Z,7.53
2022-12-23T16:56:01.126Z,7.74
2022-12-23T16:58:33.414Z,7.46
2022-12-23T17:01:03.111Z,7.63
2022-12-23T17:03:36.636Z,7.73
2022-12-23T17:06:06.967Z,7.55
2022-12-23T17:08:35.849Z,7.42
2022-12-23T17:11:10.806Z,7.50
2022-12-23T17:13:40.250Z,7.64
2022-12-23T17:16:15.783Z,7.96
2022-12-23T17:18:45.695Z,7.86
2022-12-23T17:21:20.403Z,7.95
2022-12-23T17:23:57.763Z,7.71
2022-12-23T17:26:34.669Z,7.83
2022-12-23T17:29:04.930Z,7.68
2022-12-23T17:31:42.000Z,7.55
2022-12-23T17:34:17.811Z,7.73
2022-12-23T17:36:50.554Z,7.53
2022-12-23T17:39:22.097Z,7.45
2022-12-23T17:41:58.836Z,7.33
2022-12-23T17:44:29.695Z,7.37
2022-12-23T17:47:00.864Z,7.55
2022-12-23T17:49:31.232Z,7.80
2022-12-23T17:52:00.854Z,7.50
2022-12-23T17:54:29.782Z,7.45
2022-12-23T17:57:04.095Z,7.76
2022-12-23T17:59:35.007Z,7.47
2022-12-23T18:02:06.603Z,7.72
2022-12-23T18:04:36.903Z,7.80
2022-12-23T18:07:18.928Z,7.55
2022-12-23T18:10:01.214Z,7.93
2022-12-23T18:12:36.262Z,7.76
2022-12-23T18:15:08.773Z,7.71
2022-12-23T18:17:37.930Z,7.34
2022-12-23T18:20:11.449Z,7.83
2022-12-23T18:22:40.097Z,7.42
2022-12-23T18:25:15.911Z,7.82
2022-12-23T18:27:44.513Z,7.45
2022-12-23T18:30:13.215Z,7.45
2022-12-23T18:32:42.588Z,7.68
2022-12-23T18:35:30.996Z,8.00
2022-12-23T18:38:00.590Z,7.52
2022-12-23T18:40:33.015Z,7.49
2022-12-23T18:43:02.325Z,7.49
2022-12-23T18:45:34.649Z,7.72
2022-12-23T18:48:07.485Z,7.55
2022-12-23T18:50:39.259Z,7.70
2022-12-23T18:53:09.132Z,7.75
2022-12-23T18:55:37.717Z,7.58
2022-12-23T18:58:06.179Z,7.70
2022-12-23T19:00:34.687Z,7.56
2022-12-23T19:03:03.414Z,7.75
2022-12-23T19:05:33.839Z,7.98
2022-12-23T19:08:03.897Z,7.98
2022-12-23T19:10:34.721Z,7.92
2022-12-23T19:13:03.296Z,7.68
2022-12-23T19:15:33.035Z,7.85
2022-12-23T19:18:01.589Z,7.58
2022-12-23T19:20:29.997Z,7.60
2022-12-23T19:22:58.575Z,7.64
2022-12-23T19:25:28.361Z,7.86
2022-12-23T19:27:57.405Z,7.55
2022-12-23T19:30:25.988Z,7.51
2022-12-23T19:32:54.577Z,7.37
2022-12-23T19:35:22.976Z,7.50
2022-12-23T19:37:51.658Z,7.58
2022-12-23T19:40:20.820Z,7.57
2022-12-23T19:42:50.827Z,8.00
2022-12-23T19:45:19.322Z,7.70
2022-12-23T19:47:48.017Z,7.73
2022-12-23T19:50:16.552Z,7.84
2022-12-23T19:52:45.150Z,7.79
2022-12-23T19:55:15.828Z,7.77
2022-12-23T19:57:44.335Z,7.86
2022-12-23T20:00:16.107Z,8.26
2022-12-23T20:02:44.738Z,7.98
2022-12-23T20:05:13.133Z,8.04
2022-12-23T20:07:41.739Z,7.67
2022-12-23T20:10:11.008Z,7.81
2022-12-23T20:12:40.568Z,7.86
2022-12-23T20:15:10.379Z,7.73
2022-12-23T20:17:40.614Z,7.97
2022-12-23T20:20:09.972Z,7.74
2022-12-23T20:22:38.907Z,7.67
2022-12-23T20:25:08.045Z,7.70
2022-12-23T20:27:38.858Z,7.73
2022-12-23T20:30:08.445Z,7.90
2022-12-23T20:32:37.135Z,7.76
2022-12-23T20:35:08.167Z,7.88
2022-12-23T20:37:36.891Z,7.62
2022-12-23T20:40:07.400Z,7.77
2022-12-23T20:42:36.659Z,7.51
2022-12-23T20:45:05.530Z,7.58
2022-12-23T20:47:34.143Z,7.53
2022-12-23T20:50:02.387Z,7.64
2022-12-23T20:52:32.836Z,7.94
2022-12-23T20:55:01.739Z,7.61
2022-12-23T20:57:31.439Z,7.58
2022-12-23T21:00:00.615Z,7.80
2022-12-23T21:02:29.311Z,7.55
2022-12-23T21:04:57.620Z,7.55
2022-12-23T21:07:26.930Z,7.54
2022-12-23T21:09:56.616Z,7.79
2022-12-23T21:12:25.163Z,7.59
2022-12-23T21:14:53.425Z,7.73
2022-12-23T21:17:23.964Z,7.81
2022-12-23T21:19:52.183Z,7.68
2022-12-23T21:22:20.932Z,7.91
2022-12-23T21:24:49.131Z,7.86
2022-12-23T21:27:19.053Z,8.25
2022-12-23T21:29:47.253Z,7.89
2022-12-23T21:32:15.826Z,7.81
2022-12-23T21:34:44.146Z,8.00
2022-12-23T21:37:13.304Z,7.85
2022-12-23T21:39:42.155Z,7.93
2022-12-23T21:42:11.259Z,7.98
2022-12-23T21:44:42.943Z,8.27
2022-12-23T21:47:18.648Z,8.38
2022-12-23T21:49:49.270Z,7.98
2022-12-23T21:52:20.216Z,8.37
2022-12-23T21:54:48.537Z,8.11
2022-12-23T21:57:17.102Z,8.12
2022-12-23T21:59:46.838Z,8.38
2022-12-23T22:02:17.503Z,8.38
2022-12-23T22:04:45.875Z,8.04
2022-12-23T22:07:14.409Z,8.08
2022-12-23T22:09:42.609Z,8.15
2022-12-23T22:12:11.124Z,8.16
2022-12-23T22:14:39.676Z,8.21
2022-12-23T22:17:09.761Z,8.51
2022-12-23T22:19:38.102Z,8.21
2022-12-23T22:22:06.678Z,8.31
2022-12-23T22:24:34.874Z,8.34
2022-12-23T22:27:03.621Z,8.15
2022-12-23T22:29:32.067Z,8.03
2022-12-23T22:32:00.715Z,8.07
2022-12-23T22:34:30.365Z,8.26
2022-12-23T22:36:58.899Z,7.98
2022-12-23T22:39:27.288Z,7.85
2022-12-23T22:41:55.843Z,8.10
2022-12-23T22:44:24.073Z,7.94
2022-12-23T22:46:52.593Z,7.97
2022-12-23T22:49:21.048Z,7.77
2022-12-23T22:51:51.013Z,8.05
2022-12-23T22:54:19.543Z,7.68
2022-12-23T22:56:48.099Z,7.65
2022-12-23T22:59:21.285Z,7.94
2022-12-23T23:01:50.078Z,7.55
2022-12-23T23:04:18.718Z,7.61
2022-12-23T23:06:47.442Z,7.44
2022-12-23T23:09:18.921Z,7.75
2022-12-23T23:11:47.621Z,7.41
2022-12-23T23:14:16.050Z,7.43
2022-12-23T23:16:44.795Z,7.38
2022-12-23T23:19:14.443Z,7.31
2022-12-23T23:21:43.240Z,7.29
2022-12-23T23:24:12.040Z,7.26
2022-12-23T23:26:41.996Z,7.51
2022-12-23T23:29:10.291Z,7.05
2022-12-23T23:31:42.442Z,6.88
2022-12-23T23:34:11.282Z,6.81
2022-12-23T23:36:40.112Z,6.82
2022-12-23T23:39:08.459Z,6.57
2022-12-23T23:41:37.136Z,6.45
2022-12-23T23:44:06.789Z,6.66
2022-12-23T23:46:35.916Z,6.32
2022-12-23T23:49:04.406Z,6.30
2022-12-23T23:51:33.016Z,6.33
2022-12-23T23:54:01.222Z,6.24
2022-12-23T23:56:35.827Z,6.35
2022-12-23T23:59:08.416Z,6.55
